Time;durP1;ratioP1;P1;durP2;ratioP2;P2;SDS_P1;SDS_P2;PMS_P1;PMS_P2;Temp;Humidity;BMP_temperature;BMP_pressure;BME280_temperature;BME280_humidity;BME280_pressure;Samples;Min_cycle;Max_cycle;Signal;HPM_P1;HPM_P2
2023/06/21 00:02:23;;;;;;;0.30;0.20;;;19.30;99.90;;;22.86;79.91;97767.03;5026684;28;20516;-69
2023/06/21 00:04:55;;;;;;;0.30;0.20;;;19.30;99.90;;;22.52;81.09;97770.09;5027404;28;20481;-69
2023/06/21 00:07:23;;;;;;;0.30;0.20;;;19.30;99.90;;;22.71;81.38;97781.88;5003733;28;21300;-69
2023/06/21 00:09:51;;;;;;;0.30;0.20;;;19.30;99.90;;;22.72;81.86;97783.50;5006709;28;20967;-69
2023/06/21 00:12:18;;;;;;;0.30;0.20;;;19.40;99.90;;;22.62;82.36;97783.69;5010906;28;20472;-69
2023/06/21 00:14:45;;;;;;;0.40;0.30;;;19.40;99.90;;;22.56;82.44;97793.97;4996449;28;20843;-69
2023/06/21 00:17:12;;;;;;;0.30;0.20;;;19.40;99.90;;;22.67;82.49;97791.84;5015027;28;20493;-68
2023/06/21 00:19:39;;;;;;;0.30;0.10;;;19.40;99.90;;;22.71;81.98;97778.31;5016607;28;20556;-69
2023/06/21 00:22:08;;;;;;;0.30;0.20;;;19.40;99.90;;;22.80;81.07;97775.69;4996858;28;20463;-69
2023/06/21 00:24:35;;;;;;;0.30;0.20;;;19.40;99.90;;;22.57;82.40;97773.56;5017915;28;20490;-69
2023/06/21 00:27:03;;;;;;;0.30;0.20;;;19.40;99.90;;;22.68;81.17;97765.16;5006252;28;20553;-69
2023/06/21 00:29:30;;;;;;;0.30;0.20;;;19.30;99.90;;;22.59;82.30;97773.25;5013734;28;20477;-68
2023/06/21 00:31:59;;;;;;;0.30;0.20;;;19.30;99.90;;;22.47;82.45;97777.31;5012334;28;20474;-69
2023/06/21 00:34:26;;;;;;;0.30;0.10;;;19.30;99.90;;;22.30;83.03;97777.81;4993846;28;20648;-69
2023/06/21 00:36:54;;;;;;;0.30;0.30;;;19.30;99.90;;;22.30;83.96;97777.00;5009248;28;20486;-68
2023/06/21 00:39:22;;;;;;;0.30;0.20;;;19.30;99.90;;;22.23;83.89;97771.88;5013302;28;20470;-68
2023/06/21 00:41:49;;;;;;;0.30;0.20;;;19.30;99.90;;;21.82;82.54;97695.47;5017571;28;20610;-68
2023/06/21 00:44:17;;;;;;;0.80;0.53;;;19.30;99.90;;;22.38;83.06;97761.75;5019396;28;20462;-69
2023/06/21 00:46:44;;;;;;;0.30;0.20;;;19.30;99.90;;;22.32;82.99;97761.81;5023923;28;20456;-68
2023/06/21 00:49:11;;;;;;;0.30;0.20;;;19.20;99.90;;;22.35;82.92;97774.16;5016909;28;20459;-68
2023/06/21 00:51:40;;;;;;;0.30;0.20;;;19.20;99.90;;;22.18;82.62;97725.16;5014415;28;20630;-68
2023/06/21 00:54:08;;;;;;;0.70;0.50;;;19.20;99.90;;;22.60;82.62;97775.72;5015684;28;20462;-68
2023/06/21 00:56:36;;;;;;;0.30;0.20;;;19.30;99.90;;;22.62;81.71;97759.72;5017722;28;20480;-68
2023/06/21 00:59:04;;;;;;;0.30;0.10;;;19.40;99.90;;;22.45;83.25;97764.94;5014288;28;20498;-69
2023/06/21 01:01:34;;;;;;;0.40;0.37;;;19.40;99.90;;;22.51;82.79;97755.50;5020421;28;20450;-69
2023/06/21 01:04:01;;;;;;;0.30;0.20;;;19.40;99.90;;;22.58;83.04;97766.13;5017346;28;20459;-69
2023/06/21 01:06:34;;;;;;;0.30;0.20;;;19.30;99.90;;;22.48;81.89;97767.94;5022808;28;20522;-69
2023/06/21 01:09:14;;;;;;;0.30;0.20;;;19.30;99.90;;;22.50;82.60;97775.88;5027227;28;20849;-69
2023/06/21 01:11:53;;;;;;;0.30;0.30;;;19.40;99.90;;;22.42;83.23;97768.28;5022323;28;20458;-69
2023/06/21 01:14:28;;;;;;;0.30;0.20;;;19.30;99.90;;;22.29;83.74;97789.94;5026744;28;20486;-69
2023/06/21 01:16:57;;;;;;;0.40;0.30;;;19.30;99.90;;;22.21;83.60;97779.59;5009340;28;20478;-67
2023/06/21 01:19:42;;;;;;;0.30;0.17;;;19.20;99.90;;;22.33;83.25;97785.47;5027112;28;20459;-68
2023/06/21 01:22:24;;;;;;;0.30;0.20;;;19.30;99.90;;;22.20;84.01;97788.97;5007319;28;20568;-69
2023/06/21 01:25:06;;;;;;;0.30;0.20;;;19.30;99.90;;;22.25;84.38;97791.66;5021187;28;20494;-69
2023/06/21 01:27:48;;;;;;;0.30;0.20;;;19.30;99.90;;;22.41;83.45;97783.97;5027067;28;20840;-69
2023/06/21 01:30:19;;;;;;;0.30;0.20;;;19.30;99.90;;;22.25;83.00;97791.66;5016732;28;20461;-68
2023/06/21 01:32:46;;;;;;;0.30;0.20;;;19.30;99.90;;;22.19;83.82;97798.34;5024644;28;20473;-69
2023/06/21 01:35:14;;;;;;;0.30;0.20;;;19.30;99.90;;;22.33;83.77;97799.22;5009918;28;20457;-68
2023/06/21 01:37:43;;;;;;;0.30;0.20;;;19.30;99.90;;;22.30;nan;97808.06;5020950;28;20568;-69
2023/06/21 01:40:11;;;;;;;0.30;0.20;;;19.30;99.90;;;22.20;84.18;97810.97;5025284;28;20451;-69
2023/06/21 01:42:39;;;;;;;0.30;0.20;;;19.30;99.90;;;22.20;84.25;97811.81;5020140;28;20454;-70
2023/06/21 01:45:07;;;;;;;0.30;0.20;;;19.30;99.90;;;22.29;84.68;97824.88;5026536;28;20472;-70
2023/06/21 01:47:37;;;;;;;0.30;0.20;;;19.40;99.90;;;22.15;84.64;97824.81;5010071;28;20466;-69
2023/06/21 01:50:08;;;;;;;0.30;0.20;;;19.30;99.90;;;22.17;84.58;97819.81;5022717;28;20465;-68
2023/06/21 01:52:36;;;;;;;0.70;0.70;;;19.30;99.90;;;22.25;84.47;97818.34;5030581;28;20564;-68
2023/06/21 01:55:06;;;;;;;0.30;0.20;;;19.30;99.90;;;22.20;84.04;97814.56;5025669;28;21319;-69
2023/06/21 01:57:35;;;;;;;0.30;0.20;;;19.30;99.90;;;22.17;84.61;97811.56;5015194;28;20481;-68
2023/06/21 02:00:13;;;;;;;0.30;0.20;;;19.30;99.90;;;22.66;82.37;97819.66;5022283;28;20466;-69
2023/06/21 02:02:44;;;;;;;0.30;0.20;;;19.30;99.90;;;22.83;81.11;97814.47;5008315;28;20455;-68
2023/06/21 02:05:11;;;;;;;0.30;0.10;;;19.30;99.90;;;21.86;84.72;97823.81;5024016;28;20555;-68
2023/06/21 02:07:39;;;;;;;0.30;0.20;;;19.30;99.90;;;21.94;85.24;97825.09;5022457;28;20474;-68
2023/06/21 02:10:09;;;;;;;0.30;0.20;;;19.20;99.90;;;21.86;85.39;97814.75;5016917;28;20470;-69
2023/06/21 02:12:38;;;;;;;0.30;0.20;;;19.20;99.90;;;21.86;86.56;97829.31;4999179;28;20460;-68
2023/06/21 02:15:06;;;;;;;0.30;0.20;;;19.20;99.90;;;21.80;86.34;97819.47;5017251;28;20463;-69
2023/06/21 02:17:34;;;;;;;0.30;0.20;;;19.20;99.90;;;21.77;86.17;97818.16;5021818;28;20500;-69
2023/06/21 02:20:07;;;;;;;0.40;0.30;;;19.20;99.90;;;21.41;86.53;97752.59;5008261;28;20512;-68
2023/06/21 02:22:34;;;;;;;2.10;2.00;;;19.10;99.90;;;21.65;87.29;97823.22;5021274;28;20493;-68
2023/06/21 02:25:02;;;;;;;0.30;0.20;;;19.10;99.90;;;21.67;87.26;97809.19;5021860;28;20457;-68
2023/06/21 02:27:29;;;;;;;0.30;0.20;;;19.20;99.90;;;21.43;87.80;97815.50;5007050;28;21115;-69
2023/06/21 02:29:56;;;;;;;0.40;0.40;;;19.10;99.90;;;21.36;88.65;97813.91;5021515;28;21067;-68
2023/06/21 02:32:23;;;;;;;0.30;0.20;;;19.10;99.90;;;21.34;89.17;97812.56;5006083;28;20494;-69
2023/06/21 02:34:50;;;;;;;0.30;0.20;;;19.10;99.90;;;21.45;88.79;97808.59;5024312;28;20519;-69
2023/06/21 02:37:18;;;;;;;0.30;0.20;;;19.10;99.90;;;21.45;87.96;97792.09;5012951;28;20658;-69
2023/06/21 02:39:46;;;;;;;0.30;0.20;;;19.10;99.90;;;21.54;87.97;97810.69;5023496;28;20469;-68
2023/06/21 02:42:13;;;;;;;0.60;0.60;;;19.00;99.90;;;21.22;89.58;97822.03;5019327;28;20501;-69
2023/06/21 02:44:41;;;;;;;0.40;0.30;;;19.00;99.90;;;21.47;88.48;97817.38;5019561;28;20477;-68
2023/06/21 02:47:08;;;;;;;0.30;0.20;;;19.00;99.90;;;21.50;88.41;97815.94;5029168;28;20457;-68
2023/06/21 02:49:36;;;;;;;0.30;0.20;;;19.00;99.90;;;21.26;88.71;97807.69;5026620;28;20451;-68
2023/06/21 02:52:05;;;;;;;0.30;0.20;;;19.00;99.90;;;21.48;88.53;97821.75;5006433;28;20600;-67
2023/06/21 02:54:34;;;;;;;0.30;0.20;;;19.00;99.90;;;21.28;89.35;97819.22;5020950;28;20469;-69
2023/06/21 02:57:01;;;;;;;0.30;0.20;;;19.00;99.90;;;21.10;90.09;97818.84;5008603;28;20476;-68
2023/06/21 02:59:28;;;;;;;0.30;0.20;;;19.00;99.90;;;21.01;90.92;97818.66;5021169;28;21270;-69
2023/06/21 03:01:56;;;;;;;0.30;0.20;;;19.00;99.90;;;21.23;90.53;97823.66;5025182;28;20473;-70
2023/06/21 03:04:23;;;;;;;0.30;0.20;;;19.00;99.90;;;20.95;91.38;97823.38;5027173;28;20633;-69
2023/06/21 03:06:50;;;;;;;0.30;0.20;;;18.90;99.90;;;21.32;90.06;97832.09;5026695;28;20526;-69
2023/06/21 03:09:18;;;;;;;0.30;0.20;;;18.90;99.90;;;20.99;91.13;97822.78;5003550;28;22047;-68
2023/06/21 03:11:47;;;;;;;0.30;0.20;;;18.90;99.90;;;21.01;91.04;97823.34;5024982;28;20468;-69
2023/06/21 03:14:15;;;;;;;0.30;0.20;;;18.90;99.90;;;21.00;91.06;97830.75;5025890;28;20453;-69
2023/06/21 03:16:44;;;;;;;0.30;0.17;;;18.90;99.90;;;21.06;91.13;97834.28;5026118;28;20476;-69
2023/06/21 03:19:11;;;;;;;0.30;0.20;;;18.90;99.90;;;21.19;90.74;97839.09;5026389;28;20580;-68
2023/06/21 03:21:38;;;;;;;0.30;0.20;;;18.90;99.90;;;21.14;91.58;97836.38;5008001;28;20461;-70
2023/06/21 03:24:06;;;;;;;1.37;1.13;;;19.00;99.90;;;21.34;90.34;97835.34;5028554;28;20470;-69
2023/06/21 03:26:35;;;;;;;0.30;0.20;;;19.00;99.90;;;21.07;90.35;97841.41;5028739;28;20453;-68
2023/06/21 03:29:03;;;;;;;0.30;0.20;;;19.00;99.90;;;21.35;89.82;97844.44;5010798;28;20461;-68
2023/06/21 03:31:30;;;;;;;9.23;3.43;;;19.00;99.90;;;21.08;90.13;97843.03;5020719;28;20454;-68
2023/06/21 03:33:58;;;;;;;0.30;0.20;;;19.00;99.90;;;21.30;89.68;97849.97;5016862;28;20880;-70
2023/06/21 03:36:28;;;;;;;0.60;0.60;;;19.00;99.90;;;21.31;89.79;97851.63;5012282;28;21025;-69
2023/06/21 03:38:55;;;;;;;0.30;0.20;;;19.10;99.90;;;21.22;89.62;97852.25;5009185;28;20460;-69
2023/06/21 03:41:22;;;;;;;0.30;0.20;;;19.20;99.90;;;21.36;89.45;97857.84;5026679;28;20465;-70
2023/06/21 03:43:50;;;;;;;0.30;0.20;;;19.20;99.90;;;21.50;88.80;97847.00;5012912;28;20473;-70
2023/06/21 03:46:19;;;;;;;0.30;0.20;;;19.30;99.90;;;21.47;89.22;97855.84;5028125;28;20506;-69
2023/06/21 03:48:46;;;;;;;0.30;0.20;;;19.30;99.90;;;21.25;89.98;97855.50;5022221;28;20819;-69
2023/06/21 03:51:13;;;;;;;0.30;0.20;;;19.20;99.90;;;20.77;90.75;97793.88;5014542;28;20463;-68
2023/06/21 03:53:40;;;;;;;0.30;0.17;;;19.20;99.90;;;20.91;91.51;97854.44;5016815;28;20539;-69
2023/06/21 03:56:07;;;;;;;0.30;0.20;;;19.10;99.90;;;20.98;91.28;97859.59;5016890;28;20488;-71
2023/06/21 03:58:34;;;;;;;0.30;0.20;;;19.10;99.90;;;21.12;91.07;97874.31;5021030;28;20595;-72
2023/06/21 04:01:03;;;;;;;0.30;0.20;;;19.20;99.90;;;21.72;88.98;97875.94;5023999;28;20451;-76
2023/06/21 04:03:32;;;;;;;0.57;0.57;;;19.50;99.90;;;21.94;88.76;97869.09;5027759;28;20477;-72
2023/06/21 04:05:59;;;;;;;0.30;0.20;;;19.70;99.90;;;22.44;87.59;97870.63;5014783;28;21544;-72
2023/06/21 04:08:26;;;;;;;0.30;0.10;;;20.20;99.90;;;22.74;87.27;97869.38;5022689;28;20480;-73
2023/06/21 04:10:55;;;;;;;0.30;0.20;;;20.50;99.90;;;23.14;84.44;97860.75;5018495;28;20469;-73
2023/06/21 04:13:22;;;;;;;0.30;0.20;;;20.80;99.90;;;23.38;81.45;97884.59;5027812;28;20517;-72
2023/06/21 04:15:50;;;;;;;8.90;8.00;;;21.30;99.90;;;23.47;83.34;97877.28;5011260;28;20472;-74
2023/06/21 04:18:17;;;;;;;9.43;8.20;;;21.50;99.90;;;23.33;82.14;97879.19;5027147;28;20480;-72
2023/06/21 04:20:49;;;;;;;7.73;6.93;;;21.60;99.90;;;23.39;81.74;97883.47;5022872;28;20534;-74
2023/06/21 04:23:16;;;;;;;9.50;7.20;;;21.80;99.90;;;23.32;81.45;97880.31;5022198;28;20792;-73
2023/06/21 04:25:43;;;;;;;8.83;8.00;;;21.90;99.90;;;23.17;80.82;97893.22;5016384;28;20939;-74
2023/06/21 04:28:10;;;;;;;10.80;8.10;;;22.00;99.90;;;23.58;80.67;97890.84;5016755;28;20490;-73
2023/06/21 04:30:37;;;;;;;9.63;7.17;;;22.00;99.90;;;24.70;78.63;97893.53;5019497;28;20948;-73
2023/06/21 04:33:05;;;;;;;9.23;8.13;;;22.60;99.90;;;24.97;75.24;97891.84;5017512;28;20462;-72
2023/06/21 04:35:33;;;;;;;13.00;7.80;;;23.10;99.90;;;25.00;73.68;97888.44;5016458;28;20540;-72
2023/06/21 04:38:01;;;;;;;11.00;8.97;;;23.40;98.10;;;24.64;72.81;97892.00;5024041;28;20493;-71
2023/06/21 04:40:29;;;;;;;8.17;7.37;;;23.40;95.50;;;25.10;72.58;97888.22;5018728;28;20513;-74
2023/06/21 04:42:57;;;;;;;7.03;6.33;;;23.80;95.90;;;25.89;71.57;97901.66;5013380;28;20998;-73
2023/06/21 04:45:26;;;;;;;7.50;6.80;;;24.30;95.50;;;26.93;66.28;97910.50;5013251;28;20591;-69
2023/06/21 04:47:57;;;;;;;8.80;7.40;;;24.70;94.90;;;26.66;65.86;97906.88;5013426;28;20479;-73
2023/06/21 04:50:25;;;;;;;10.03;7.13;;;24.90;93.20;;;26.86;65.26;97916.53;5013052;28;20461;-71
2023/06/21 04:52:57;;;;;;;8.90;7.80;;;25.10;92.90;;;26.20;67.08;97900.78;5014961;28;20985;-72
2023/06/21 04:55:27;;;;;;;10.80;7.43;;;25.20;92.50;;;25.96;67.87;97896.44;5014735;28;20986;-75
2023/06/21 04:57:55;;;;;;;8.90;7.97;;;25.10;92.30;;;26.08;66.20;97861.81;5005718;28;20474;-74
2023/06/21 05:00:23;;;;;;;9.40;8.40;;;25.40;92.00;;;26.76;67.08;97910.47;5027161;28;21009;-72
2023/06/21 05:02:50;;;;;;;9.70;7.57;;;25.40;92.20;;;26.44;66.82;97913.38;5007502;28;20482;-70
2023/06/21 05:05:17;;;;;;;9.20;8.30;;;25.60;91.80;;;26.46;66.51;97919.41;5009918;28;20563;-71
2023/06/21 05:07:44;;;;;;;9.47;6.80;;;25.70;91.50;;;27.08;64.58;97925.84;5019670;28;20950;-70
2023/06/21 05:10:12;;;;;;;7.77;7.07;;;25.90;91.40;;;26.64;67.30;97925.78;5019388;28;20456;-71
2023/06/21 05:12:40;;;;;;;10.20;7.00;;;25.80;91.80;;;26.22;68.39;97920.66;5000093;28;20456;-73
2023/06/21 05:15:10;;;;;;;7.77;6.20;;;25.20;92.00;;;27.12;65.80;97924.03;5022298;28;20462;-73
2023/06/21 05:17:37;;;;;;;7.80;7.00;;;25.30;92.50;;;27.71;62.88;97932.91;5010895;28;20493;-73
2023/06/21 05:20:08;;;;;;;8.87;6.97;;;25.90;91.50;;;28.24;58.54;97935.50;4994225;28;20469;-73
2023/06/21 05:22:35;;;;;;;10.47;7.67;;;26.30;90.40;;;27.99;56.73;97926.94;4996696;28;20892;-71
2023/06/21 05:25:04;;;;;;;9.97;6.97;;;26.50;88.30;;;27.87;57.58;97947.06;5022417;28;20849;-71
2023/06/21 05:27:31;;;;;;;8.73;7.83;;;26.40;87.70;;;27.93;57.11;97956.81;5019175;28;20472;-71
2023/06/21 05:30:00;;;;;;;14.77;10.30;;;26.50;87.40;;;28.04;58.33;97956.47;5022499;28;20535;-71
2023/06/21 05:32:27;;;;;;;9.53;7.93;;;26.50;88.20;;;27.53;58.55;97968.22;5003435;28;20469;-70
2023/06/21 05:34:54;;;;;;;8.90;7.97;;;26.00;88.10;;;27.21;58.02;97976.69;5020601;28;20530;-70
2023/06/21 05:37:23;;;;;;;9.60;8.70;;;25.90;87.50;;;26.96;59.32;97978.34;5020159;28;20463;-70
2023/06/21 05:39:51;;;;;;;9.27;8.37;;;25.60;88.40;;;26.06;62.08;97981.13;5023402;28;20461;-70
2023/06/21 05:42:19;;;;;;;10.53;9.23;;;24.90;89.20;;;25.51;63.65;97998.91;5023056;28;20482;-77
2023/06/21 05:44:46;;;;;;;11.10;9.33;;;24.30;90.10;;;24.68;66.56;98020.09;5018825;28;20509;-80
2023/06/21 05:47:15;;;;;;;10.10;9.10;;;23.60;90.90;;;24.52;68.66;98034.22;5024302;28;20542;-77
2023/06/21 05:49:42;;;;;;;14.67;8.87;;;23.20;92.30;;;24.23;70.64;98054.66;5026118;28;20454;-78
2023/06/21 05:52:09;;;;;;;11.20;10.03;;;22.90;93.50;;;23.85;72.10;98068.53;5029325;28;20544;-75
2023/06/21 05:54:41;;;;;;;10.40;9.37;;;22.60;94.30;;;23.83;72.08;98073.53;5028119;28;21104;-81
2023/06/21 05:57:09;;;;;;;13.10;11.20;;;22.50;94.70;;;23.67;73.17;98075.75;5026435;28;20473;-79
2023/06/21 05:59:36;;;;;;;13.30;10.90;;;22.30;95.80;;;24.02;72.69;98077.09;5003086;28;20482;-78
2023/06/21 06:02:04;;;;;;;12.33;10.23;;;22.40;96.80;;;23.81;73.02;98081.28;5020181;28;20482;-75
2023/06/21 06:04:32;;;;;;;11.87;10.63;;;22.30;96.20;;;23.81;76.55;98079.38;5018575;28;20462;-77
2023/06/21 06:07:00;;;;;;;12.50;10.63;;;22.30;99.90;;;23.89;74.15;98081.41;5005161;28;20655;-77
2023/06/21 06:09:27;;;;;;;11.40;9.67;;;22.40;97.60;;;24.29;71.18;98081.03;5008914;28;20500;-77
2023/06/21 06:11:56;;;;;;;10.40;9.20;;;22.50;96.10;;;24.38;69.88;98072.03;5004086;28;20510;-78
2023/06/21 06:14:24;;;;;;;8.87;8.07;;;22.70;94.50;;;25.07;67.29;98070.41;5006037;28;20467;-76
2023/06/21 06:16:51;;;;;;;8.90;7.77;;;23.10;94.60;;;25.83;65.39;98091.88;5004224;28;20452;-77
2023/06/21 06:19:19;;;;;;;9.07;8.00;;;23.70;93.10;;;26.61;62.62;98092.66;5025528;28;21073;-76
2023/06/21 06:21:48;;;;;;;10.30;8.53;;;24.60;91.90;;;26.58;62.80;98088.56;5024171;28;20468;-73
2023/06/21 06:24:15;;;;;;;9.00;7.80;;;24.90;91.30;;;26.53;60.38;98074.84;5022166;28;20469;-74
2023/06/21 06:26:42;;;;;;;9.80;8.90;;;25.00;90.30;;;27.03;59.31;98081.22;5037187;28;20461;-74
2023/06/21 06:29:10;;;;;;;8.87;7.97;;;25.30;90.00;;;27.05;58.73;98073.38;5019214;28;20454;-71
2023/06/21 06:31:37;;;;;;;9.10;8.20;;;25.30;89.40;;;26.58;58.25;98063.63;5015479;28;20558;-72
2023/06/21 06:34:05;;;;;;;8.30;7.47;;;25.10;88.30;;;25.89;59.41;98060.16;5046394;28;20533;-82
2023/06/21 06:36:32;;;;;;;12.40;7.47;;;24.50;87.60;;;26.10;59.49;98042.22;5038330;28;20551;-82
2023/06/21 06:39:01;;;;;;;11.87;7.53;;;24.30;88.50;;;26.23;60.44;98046.88;5012777;28;20468;-83
2023/06/21 06:41:28;;;;;;;9.03;7.67;;;24.30;89.90;;;26.11;62.47;98041.91;5028755;28;20460;-83
2023/06/21 06:43:56;;;;;;;8.20;7.40;;;24.30;90.60;;;26.22;62.41;98042.47;5014048;28;20537;-84
2023/06/21 06:46:23;;;;;;;7.90;7.10;;;24.30;90.60;;;26.03;62.10;98043.50;5010142;28;20803;-83
2023/06/21 06:48:51;;;;;;;7.67;6.97;;;24.30;90.40;;;26.11;60.35;98047.44;5011407;28;21003;-81
2023/06/21 06:51:18;;;;;;;6.80;6.20;;;24.20;89.60;;;26.44;58.15;98054.59;5010426;28;20453;-83
2023/06/21 06:53:47;;;;;;;6.70;6.10;;;24.40;88.90;;;26.46;55.46;98021.88;5031505;28;20644;-85
2023/06/21 06:56:17;;;;;;;6.97;6.30;;;24.70;87.10;;;26.90;55.17;98004.56;5025850;28;20988;-84
2023/06/21 06:58:44;;;;;;;5.23;4.83;;;25.00;87.10;;;27.80;51.76;98057.75;5012460;28;20475;-83
2023/06/21 07:01:14;;;;;;;7.40;5.50;;;25.50;84.00;;;27.51;50.84;98037.03;5015755;28;21103;-82
2023/06/21 07:03:42;;;;;;;6.67;4.67;;;25.70;81.90;;;27.84;49.58;98047.66;5022705;28;20464;-83
2023/06/21 07:06:09;;;;;;;6.90;4.93;;;25.70;80.30;;;28.38;48.04;98033.28;5021987;28;20465;-86
2023/06/21 07:08:42;;;;;;;5.87;5.37;;;26.10;78.60;;;28.06;48.23;98027.19;5004656;28;20542;-83
2023/06/21 07:11:10;;;;;;;6.33;5.23;;;26.30;77.60;;;27.85;48.53;98011.22;5022210;28;20461;-82
2023/06/21 07:13:38;;;;;;;5.50;5.00;;;26.10;77.40;;;28.25;50.14;98031.56;5024449;28;20473;-71
2023/06/21 07:16:06;;;;;;;5.33;4.83;;;26.20;79.60;;;28.24;50.89;98027.94;5022049;28;20588;-69
2023/06/21 07:18:33;;;;;;;6.23;4.97;;;26.20;81.10;;;28.60;48.73;98027.81;5008209;28;20486;-70
2023/06/21 07:21:01;;;;;;;5.57;4.23;;;26.40;79.30;;;29.03;46.21;98028.69;5007016;28;20548;-69
2023/06/21 07:23:29;;;;;;;6.97;5.40;;;26.60;76.70;;;28.62;48.26;98031.06;5020220;28;20540;-72
2023/06/21 07:25:56;;;;;;;7.30;5.30;;;26.60;77.10;;;28.93;47.71;98029.91;5004779;28;20565;-73
2023/06/21 07:28:24;;;;;;;5.93;5.33;;;26.70;77.00;;;28.64;49.11;98023.19;5037053;28;20459;-72
2023/06/21 07:30:53;;;;;;;5.80;5.07;;;27.00;76.90;;;29.12;46.74;98029.47;5016341;28;20451;-70
2023/06/21 07:33:21;;;;;;;5.23;4.70;;;27.30;74.80;;;28.94;47.06;98025.97;5024231;28;20476;-70
2023/06/21 07:35:49;;;;;;;7.03;5.57;;;27.20;74.40;;;28.34;48.97;98028.72;5026145;28;21297;-72
2023/06/21 07:38:16;;;;;;;4.90;4.40;;;26.90;75.50;;;27.99;49.11;98033.25;5005299;28;21102;-70
2023/06/21 07:40:43;;;;;;;3.93;3.53;;;26.60;74.80;;;28.09;47.19;98031.22;5022699;28;20573;-71
2023/06/21 07:43:10;;;;;;;4.40;3.97;;;26.50;72.70;;;28.51;47.27;98003.66;5024454;28;20471;-71
2023/06/21 07:45:37;;;;;;;5.60;4.30;;;26.50;74.10;;;28.69;45.69;97989.63;5008391;28;20462;-80
2023/06/21 07:48:07;;;;;;;4.13;3.50;;;26.70;72.70;;;28.00;47.24;97976.56;5011270;28;20450;-73
2023/06/21 07:50:37;;;;;;;5.10;3.20;;;26.60;71.90;;;28.26;45.84;97980.41;5019436;28;20528;-73
2023/06/21 07:53:04;;;;;;;4.67;3.30;;;26.40;71.70;;;28.77;46.20;97999.06;5003420;28;20493;-74
2023/06/21 07:55:31;;;;;;;3.90;3.50;;;26.60;72.50;;;28.86;44.42;98001.81;5018831;28;20474;-73
2023/06/21 07:57:59;;;;;;;6.00;3.37;;;27.00;71.00;;;29.14;43.18;98002.13;5022440;28;20465;-72
2023/06/21 08:00:27;;;;;;;4.00;3.53;;;27.10;69.30;;;29.06;43.81;97991.88;5016087;28;20469;-74
2023/06/21 08:02:55;;;;;;;6.83;3.47;;;27.30;68.60;;;29.44;43.48;98009.56;5003541;28;20464;-74
2023/06/21 08:05:25;;;;;;;3.40;3.10;;;27.50;68.40;;;29.53;42.75;98000.00;5030202;28;20498;-73
2023/06/21 08:07:53;;;;;;;4.00;3.60;;;27.60;67.60;;;29.52;41.24;97994.78;5002368;28;20461;-73
2023/06/21 08:10:21;;;;;;;3.97;3.47;;;27.80;66.10;;;29.38;41.79;97986.69;5025137;28;20465;-71
2023/06/21 08:12:48;;;;;;;3.70;3.30;;;27.70;65.50;;;29.71;41.17;97994.25;5025739;28;20469;-70
2023/06/21 08:15:15;;;;;;;3.60;3.30;;;27.90;64.40;;;29.20;41.45;97977.69;5026062;28;20512;-70
2023/06/21 08:17:45;;;;;;;4.40;3.43;;;27.80;63.60;;;28.15;43.24;97985.50;5011590;28;21004;-70
2023/06/21 08:20:13;;;;;;;6.03;3.83;;;27.20;63.60;;;28.25;44.24;97984.34;5017807;28;20489;-71
2023/06/21 08:22:42;;;;;;;3.37;2.53;;;26.80;65.40;;;28.67;43.06;97986.38;5020725;28;20465;-71
2023/06/21 08:25:09;;;;;;;5.20;3.80;;;27.00;65.00;;;27.99;44.39;97986.06;5000743;28;20468;-70
2023/06/21 08:27:37;;;;;;;8.37;3.97;;;26.80;64.90;;;28.43;43.54;97985.03;5012430;28;20469;-70
2023/06/21 08:30:06;;;;;;;6.17;4.43;;;26.90;65.50;;;28.39;44.38;97986.88;5006789;28;20515;-71
2023/06/21 08:32:33;;;;;;;5.63;3.23;;;27.10;65.50;;;28.52;43.67;97980.25;5016114;28;20461;-71
2023/06/21 08:35:01;;;;;;;4.73;3.20;;;27.00;65.30;;;28.42;44.05;97989.81;5020044;28;20457;-70
2023/06/21 08:37:28;;;;;;;3.77;2.70;;;26.90;65.30;;;28.81;42.57;97986.97;5002759;28;20869;-71
2023/06/21 08:39:58;;;;;;;3.27;2.97;;;26.90;64.60;;;29.25;42.35;97985.81;5009984;28;20486;-72
2023/06/21 08:42:26;;;;;;;5.10;3.97;;;27.20;65.20;;;29.80;41.72;97980.22;5003709;28;20479;-70
2023/06/21 08:44:55;;;;;;;3.90;3.50;;;27.50;65.10;;;29.75;41.64;97983.25;5003725;28;21329;-70
2023/06/21 08:47:23;;;;;;;6.80;2.80;;;27.70;64.80;;;29.74;39.93;97989.97;5020056;28;20465;-72
2023/06/21 08:49:51;;;;;;;5.10;3.00;;;27.90;63.00;;;29.52;40.68;97990.00;5022129;28;20950;-70
2023/06/21 08:52:22;;;;;;;3.53;2.50;;;28.00;62.40;;;29.88;40.14;97998.81;5005214;28;20470;-71
2023/06/21 08:54:57;;;;;;;3.47;2.87;;;28.10;62.30;;;30.17;39.72;97999.81;5005629;28;20457;-71
2023/06/21 08:57:28;;;;;;;2.37;2.10;;;28.30;61.60;;;29.92;40.61;97996.97;5003156;28;20462;-70
2023/06/21 09:00:01;;;;;;;4.33;3.00;;;28.20;61.70;;;29.36;41.36;97992.59;5019194;28;20474;-69
2023/06/21 09:02:36;;;;;;;4.00;3.20;;;28.00;62.20;;;29.40;42.63;98010.22;5019063;28;20461;-70
2023/06/21 09:05:10;;;;;;;3.10;2.77;;;27.70;63.60;;;29.31;42.28;98009.50;5019411;28;20475;-69
2023/06/21 09:07:38;;;;;;;3.50;3.00;;;27.50;63.60;;;29.04;42.52;98021.97;5002701;28;20576;-69
2023/06/21 09:10:15;;;;;;;3.53;2.70;;;27.30;63.20;;;28.70;43.84;98021.84;5001782;28;20453;-69
2023/06/21 09:12:44;;;;;;;4.30;2.93;;;27.20;63.90;;;28.68;43.27;98027.75;5005195;28;20486;-69
2023/06/21 09:15:13;;;;;;;4.23;3.13;;;27.20;63.50;;;28.64;43.34;98010.09;5015637;28;20573;-71
2023/06/21 09:17:41;;;;;;;3.10;2.67;;;27.30;63.60;;;28.79;43.82;98024.56;5018465;28;20465;-70
2023/06/21 09:20:11;;;;;;;3.20;3.00;;;27.30;64.40;;;28.83;43.73;98031.94;5016767;28;20481;-70
2023/06/21 09:22:39;;;;;;;3.77;3.37;;;27.30;64.40;;;28.77;44.61;98032.44;5015198;28;20561;-71
2023/06/21 09:25:07;;;;;;;3.40;2.97;;;27.10;65.40;;;29.08;43.37;98046.00;5020532;28;20795;-71
2023/06/21 09:27:35;;;;;;;3.20;2.70;;;27.10;65.00;;;28.99;42.61;98045.22;5020132;28;20527;-68
2023/06/21 09:30:05;;;;;;;3.80;2.50;;;27.30;63.80;;;29.11;43.20;98034.19;5022307;28;20877;-71
2023/06/21 09:32:33;;;;;;;4.10;2.47;;;27.50;64.30;;;29.86;42.21;98042.91;5019503;28;20519;-70
2023/06/21 09:35:00;;;;;;;3.73;2.67;;;27.80;64.40;;;29.60;42.58;98034.81;5019876;28;20488;-70
2023/06/21 09:37:36;;;;;;;2.97;2.53;;;27.90;64.00;;;29.81;40.75;98041.13;5020064;28;20515;-70
2023/06/21 09:40:04;;;;;;;2.57;2.37;;;27.90;62.20;;;29.62;41.51;98044.44;5002894;28;22125;-71
2023/06/21 09:42:33;;;;;;;2.53;2.20;;;27.90;62.50;;;29.54;41.83;98043.34;5019225;28;20986;-71
2023/06/21 09:45:00;;;;;;;2.97;2.20;;;27.70;62.60;;;29.32;41.48;98047.28;5018104;28;21323;-69
2023/06/21 09:47:32;;;;;;;2.67;2.47;;;27.60;61.80;;;29.43;42.01;98036.59;5003431;28;20466;-71
2023/06/21 09:49:59;;;;;;;3.70;2.37;;;27.50;62.90;;;29.06;40.65;98042.75;5018098;28;20458;-71
2023/06/21 09:52:27;;;;;;;3.00;2.53;;;27.30;61.50;;;28.81;42.64;98023.13;5020830;28;20477;-70
2023/06/21 09:54:58;;;;;;;2.83;2.53;;;27.00;62.60;;;28.66;42.63;98032.00;5020403;28;20553;-70
2023/06/21 09:57:29;;;;;;;2.50;2.30;;;26.90;62.70;;;29.04;42.21;98028.38;5019535;28;20458;-71
2023/06/21 09:59:56;;;;;;;2.93;2.63;;;26.80;63.20;;;28.76;42.19;98026.06;5000950;28;20567;-71
2023/06/21 10:02:24;;;;;;;3.63;2.70;;;26.90;62.80;;;28.70;43.00;98039.34;5003462;28;20473;-70
2023/06/21 10:04:54;;;;;;;3.97;3.23;;;26.70;63.30;;;28.94;42.97;98031.53;5017003;28;20908;-70
2023/06/21 10:07:24;;;;;;;4.30;2.70;;;26.70;64.40;;;29.23;42.79;98032.66;5025575;28;20541;-70
2023/06/21 10:09:51;;;;;;;3.23;2.93;;;26.90;64.40;;;28.96;43.01;98040.34;5011118;28;20467;-69
2023/06/21 10:12:19;;;;;;;5.63;3.33;;;26.90;64.00;;;29.20;43.02;98027.75;5033840;28;20461;-71
2023/06/21 10:14:46;;;;;;;4.17;2.90;;;26.90;64.40;;;29.41;42.63;98042.47;5037211;28;20491;-72
2023/06/21 10:17:16;;;;;;;5.43;3.00;;;27.20;64.30;;;29.49;42.17;98012.13;5037166;28;20473;-71
2023/06/21 10:19:44;;;;;;;3.53;3.10;;;27.40;64.30;;;29.88;41.27;98050.91;5033780;28;20986;-72
2023/06/21 10:22:20;;;;;;;3.20;2.87;;;27.70;63.80;;;30.15;41.45;98049.50;5029422;28;20466;-74
2023/06/21 10:24:49;;;;;;;4.50;2.83;;;27.90;63.90;;;30.09;41.53;98050.84;5021335;28;20569;-74